Time;durP1;ratioP1;P1;durP2;ratioP2;P2;SDS_P1;SDS_P2;PMS_P1;PMS_P2;Temp;Humidity;BMP_temperature;BMP_pressure;BME280_temperature;BME280_humidity;BME280_pressure;Samples;Min_cycle;Max_cycle;Signal;HPM_P1;HPM_P2
2024/04/22 00:00:03;;;;;;;58.83;6.10;;;;;;;;;;5348274;26;20553;-69
2024/04/22 00:02:29;;;;;;;59.00;6.23;;;;;;;;;;5348473;26;20471;-69
2024/04/22 00:04:58;;;;;;;61.57;6.87;;;;;;;;;;5347536;26;20528;-69
2024/04/22 00:07:27;;;;;;;59.47;6.47;;;;;;;;;;5347703;26;20471;-69
2024/04/22 00:09:57;;;;;;;61.13;6.30;;;;;;;;;;5348009;26;20532;-69
2024/04/22 00:12:23;;;;;;;59.37;6.70;;;;;;;;;;5346705;26;20575;-69
2024/04/22 00:14:52;;;;;;;60.73;7.10;;;;;;;;;;5347246;26;20467;-69
2024/04/22 00:17:18;;;;;;;60.80;6.57;;;;;;;;;;5347154;26;20598;-69
2024/04/22 00:19:47;;;;;;;60.08;7.43;;;;;;;;;;5347527;26;21063;-69
2024/04/22 00:22:13;;;;;;;60.10;6.57;;;;;;;;;;5347915;26;20338;-69
2024/04/22 00:24:45;;;;;;;59.75;6.60;;;;;;;;;;5347554;26;20432;-69
2024/04/22 00:27:11;;;;;;;61.53;6.83;;;;;;;;;;5346509;26;20346;-69
2024/04/22 00:29:39;;;;;;;60.80;6.80;;;;;;;;;;5348027;26;20484;-69
2024/04/22 00:32:06;;;;;;;59.67;6.10;;;;;;;;;;5347672;26;20532;-69
2024/04/22 00:34:34;;;;;;;60.20;6.23;;;;;;;;;;5347643;26;20491;-69
2024/04/22 00:37:01;;;;;;;59.80;6.80;;;;;;;;;;5347315;26;20602;-69
2024/04/22 00:39:29;;;;;;;60.33;6.40;;;;;;;;;;5347512;26;20547;-69
2024/04/22 00:41:58;;;;;;;59.03;6.30;;;;;;;;;;5347657;26;20978;-69
2024/04/22 00:44:27;;;;;;;60.67;6.50;;;;;;;;;;5347275;26;21061;-69
2024/04/22 00:46:53;;;;;;;60.37;6.40;;;;;;;;;;5347645;26;20479;-69
2024/04/22 00:49:22;;;;;;;60.70;6.60;;;;;;;;;;5347790;26;20475;-69
2024/04/22 00:51:49;;;;;;;58.87;5.90;;;;;;;;;;5347919;26;20495;-69
2024/04/22 00:54:18;;;;;;;60.30;6.70;;;;;;;;;;5348041;26;20593;-69
2024/04/22 00:56:44;;;;;;;61.10;6.90;;;;;;;;;;5347351;26;20488;-69
2024/04/22 00:59:15;;;;;;;59.23;6.17;;;;;;;;;;5347329;26;20533;-69
2024/04/22 01:01:42;;;;;;;58.30;5.47;;;;;;;;;;5348126;26;20947;-69
2024/04/22 01:04:11;;;;;;;61.50;6.57;;;;;;;;;;5348075;26;20287;-69
2024/04/22 01:06:37;;;;;;;61.35;6.60;;;;;;;;;;5347385;26;20483;-69
2024/04/22 01:09:06;;;;;;;60.53;6.47;;;;;;;;;;5347662;26;20238;-69
2024/04/22 01:11:33;;;;;;;59.90;6.10;;;;;;;;;;5347585;26;20472;-69
2024/04/22 01:14:01;;;;;;;61.10;7.43;;;;;;;;;;5347419;26;20479;-69
2024/04/22 01:16:30;;;;;;;60.57;6.67;;;;;;;;;;5347869;26;20594;-69
2024/04/22 01:18:59;;;;;;;59.10;5.80;;;;;;;;;;5347694;26;20476;-69
2024/04/22 01:21:28;;;;;;;60.07;6.70;;;;;;;;;;5347983;26;20587;-69
2024/04/22 01:23:58;;;;;;;60.00;6.50;;;;;;;;;;5347782;26;21078;-69
2024/04/22 01:26:25;;;;;;;59.50;6.20;;;;;;;;;;5347461;26;20524;-69
2024/04/22 01:28:54;;;;;;;57.77;5.33;;;;;;;;;;5347171;26;20599;-69
2024/04/22 01:31:20;;;;;;;59.27;6.97;;;;;;;;;;5347651;26;20521;-69
2024/04/22 01:33:49;;;;;;;59.27;6.40;;;;;;;;;;5347628;26;20468;-69
2024/04/22 01:36:15;;;;;;;59.50;6.47;;;;;;;;;;5347049;26;20868;-69
2024/04/22 01:38:47;;;;;;;60.10;6.10;;;;;;;;;;5346100;26;20594;-69
2024/04/22 01:41:13;;;;;;;65.93;6.87;;;;;;;;;;5346974;26;20627;-69
2024/04/22 01:43:42;;;;;;;60.40;6.50;;;;;;;;;;5347014;26;20579;-69
2024/04/22 01:46:08;;;;;;;59.57;6.00;;;;;;;;;;5345583;26;20592;-69
2024/04/22 01:48:37;;;;;;;59.08;6.45;;;;;;;;;;5346796;26;20594;-69
2024/04/22 01:51:03;;;;;;;60.67;6.87;;;;;;;;;;5347001;26;20250;-69
2024/04/22 01:53:32;;;;;;;60.10;6.10;;;;;;;;;;5346395;26;20488;-69
2024/04/22 01:56:01;;;;;;;58.57;5.60;;;;;;;;;;5347049;26;20468;-69
2024/04/22 01:58:30;;;;;;;58.75;5.32;;;;;;;;;;5347393;26;20483;-69
2024/04/22 02:00:56;;;;;;;59.65;5.95;;;;;;;;;;5346472;26;20245;-69
2024/04/22 02:03:24;;;;;;;59.10;6.10;;;;;;;;;;5347479;26;20611;-69
2024/04/22 02:05:51;;;;;;;61.15;6.35;;;;;;;;;;5346623;26;20848;-69
2024/04/22 02:08:19;;;;;;;60.17;5.87;;;;;;;;;;5346249;26;20253;-69
2024/04/22 02:10:45;;;;;;;59.05;6.25;;;;;;;;;;5346678;26;20480;-69
2024/04/22 02:13:17;;;;;;;58.50;5.50;;;;;;;;;;5346478;26;20283;-69
2024/04/22 02:15:43;;;;;;;59.63;6.23;;;;;;;;;;5346525;26;20479;-69
2024/04/22 02:18:12;;;;;;;59.80;6.03;;;;;;;;;;5346542;26;20539;-69
2024/04/22 02:20:38;;;;;;;58.60;6.10;;;;;;;;;;5346714;26;20487;-68
2024/04/22 02:23:07;;;;;;;58.70;6.13;;;;;;;;;;5346630;26;20484;-68
2024/04/22 02:25:33;;;;;;;58.57;5.50;;;;;;;;;;5346543;26;20528;-69
2024/04/22 02:28:02;;;;;;;57.70;5.10;;;;;;;;;;5345841;26;20883;-69
2024/04/22 02:30:30;;;;;;;58.80;5.23;;;;;;;;;;5346352;26;20491;-68
2024/04/22 02:32:59;;;;;;;58.07;5.20;;;;;;;;;;5345794;26;20475;-69
2024/04/22 02:35:25;;;;;;;59.37;5.67;;;;;;;;;;5346301;26;20571;-68
2024/04/22 02:37:54;;;;;;;58.30;4.97;;;;;;;;;;5346260;26;20475;-68
2024/04/22 02:40:20;;;;;;;59.22;5.88;;;;;;;;;;5347100;26;20480;-68
2024/04/22 02:42:49;;;;;;;57.78;4.75;;;;;;;;;;5346051;26;20300;-68
2024/04/22 02:45:15;;;;;;;58.95;4.57;;;;;;;;;;5346284;26;20308;-68
2024/04/22 02:47:46;;;;;;;57.50;5.18;;;;;;;;;;5346047;26;20245;-69
2024/04/22 02:50:13;;;;;;;59.30;6.17;;;;;;;;;;5346668;26;20289;-68
2024/04/22 02:52:42;;;;;;;57.67;4.80;;;;;;;;;;5349953;26;20475;-68
2024/04/22 02:55:09;;;;;;;65.27;5.53;;;;;;;;;;5350538;26;20463;-68
2024/04/22 02:57:38;;;;;;;58.25;5.32;;;;;;;;;;5349694;26;20543;-69
2024/04/22 03:00:04;;;;;;;58.30;4.80;;;;;;;;;;5349075;26;20304;-69
2024/04/22 03:02:33;;;;;;;62.27;5.87;;;;;;;;;;5350125;26;20471;-68
2024/04/22 03:05:02;;;;;;;60.05;5.40;;;;;;;;;;5349874;26;20491;-68
2024/04/22 03:07:32;;;;;;;59.08;5.90;;;;;;;;;;5349213;26;20292;-69
2024/04/22 03:09:58;;;;;;;61.60;5.55;;;;;;;;;;5348891;26;20280;-69
2024/04/22 03:12:26;;;;;;;58.15;5.65;;;;;;;;;;5349599;26;20323;-68
2024/04/22 03:14:53;;;;;;;58.07;5.73;;;;;;;;;;5350139;26;20253;-69
2024/04/22 03:17:21;;;;;;;58.50;5.68;;;;;;;;;;5349304;26;20479;-69
2024/04/22 03:19:47;;;;;;;59.50;5.60;;;;;;;;;;5349307;26;20241;-69
2024/04/22 03:22:19;;;;;;;57.97;5.07;;;;;;;;;;5349626;26;20483;-68
2024/04/22 03:24:46;;;;;;;58.00;4.90;;;;;;;;;;5350083;26;20476;-69
2024/04/22 03:27:15;;;;;;;60.20;5.77;;;;;;;;;;5348979;26;20602;-68
2024/04/22 03:29:41;;;;;;;58.00;4.90;;;;;;;;;;5350149;26;20472;-68
2024/04/22 03:32:09;;;;;;;57.55;4.65;;;;;;;;;;5350087;26;20291;-68
2024/04/22 03:34:36;;;;;;;59.40;5.40;;;;;;;;;;5349897;26;20245;-68
2024/04/22 03:37:04;;;;;;;59.30;5.33;;;;;;;;;;5349704;26;20245;-69
2024/04/22 03:39:36;;;;;;;57.67;4.45;;;;;;;;;;5350056;26;20990;-69
2024/04/22 03:42:05;;;;;;;58.78;5.05;;;;;;;;;;5349753;26;20764;-68
2024/04/22 03:44:33;;;;;;;58.42;5.47;;;;;;;;;;5349970;26;20342;-68
2024/04/22 03:49:54;;;;;;;61.70;5.20;;;;;;;;;;5351642;26;20309;-68
2024/04/22 03:52:23;;;;;;;59.25;5.68;;;;;;;;;;5349291;26;20275;-69
2024/04/22 03:54:54;;;;;;;60.63;5.60;;;;;;;;;;5350184;26;20245;-68
2024/04/22 03:57:23;;;;;;;59.13;5.47;;;;;;;;;;5348980;26;20667;-69
2024/04/22 03:59:51;;;;;;;64.38;5.50;;;;;;;;;;5350980;26;20250;-68
2024/04/22 04:02:20;;;;;;;58.50;5.35;;;;;;;;;;5350869;26;20721;-68
2024/04/22 04:04:46;;;;;;;60.20;5.72;;;;;;;;;;5350164;26;20315;-68
2024/04/22 04:07:15;;;;;;;58.72;5.88;;;;;;;;;;5349851;26;20249;-68
2024/04/22 04:09:42;;;;;;;59.83;6.22;;;;;;;;;;5350479;26;20249;-68
2024/04/22 04:12:13;;;;;;;64.20;5.65;;;;;;;;;;5350501;26;20238;-68
2024/04/22 04:14:40;;;;;;;59.35;6.07;;;;;;;;;;5350315;26;20346;-69
2024/04/22 04:17:08;;;;;;;58.40;5.65;;;;;;;;;;5349510;26;20631;-68
2024/04/22 04:19:35;;;;;;;59.58;5.82;;;;;;;;;;5350382;26;20609;-68
2024/04/22 04:22:03;;;;;;;59.22;6.20;;;;;;;;;;5349439;26;20237;-68
2024/04/22 04:24:29;;;;;;;59.70;6.05;;;;;;;;;;5350435;26;20814;-68
2024/04/22 04:26:58;;;;;;;59.15;5.82;;;;;;;;;;5349768;26;20749;-68
2024/04/22 04:29:27;;;;;;;58.95;5.85;;;;;;;;;;5350453;26;20245;-68
2024/04/22 04:31:56;;;;;;;59.00;6.22;;;;;;;;;;5350814;26;20371;-68
2024/04/22 04:34:22;;;;;;;58.72;5.40;;;;;;;;;;5350347;26;20335;-68
2024/04/22 04:36:51;;;;;;;59.67;5.85;;;;;;;;;;5350023;26;20309;-68
2024/04/22 04:39:17;;;;;;;61.30;6.03;;;;;;;;;;5349863;26;20249;-68
2024/04/22 04:41:45;;;;;;;59.67;6.10;;;;;;;;;;5350140;26;20241;-69
2024/04/22 04:44:12;;;;;;;59.10;6.15;;;;;;;;;;5350400;26;20342;-68
2024/04/22 04:46:43;;;;;;;59.85;6.50;;;;;;;;;;5350954;26;20284;-68
2024/04/22 04:49:10;;;;;;;59.58;5.45;;;;;;;;;;5350402;26;20316;-68
2024/04/22 04:51:40;;;;;;;58.78;5.93;;;;;;;;;;5350112;26;20284;-68
2024/04/22 04:54:06;;;;;;;60.88;6.57;;;;;;;;;;5350164;26;20241;-68
2024/04/22 04:56:35;;;;;;;58.83;6.07;;;;;;;;;;5350354;26;20283;-69
2024/04/22 04:59:01;;;;;;;61.33;5.60;;;;;;;;;;5350296;26;20253;-68
2024/04/22 05:01:30;;;;;;;60.65;7.25;;;;;;;;;;5350173;26;20241;-68
2024/04/22 05:03:58;;;;;;;57.78;4.97;;;;;;;;;;5350547;26;20280;-68
2024/04/22 05:06:27;;;;;;;61.97;5.93;;;;;;;;;;5350168;26;20241;-68
2024/04/22 05:08:53;;;;;;;58.47;5.45;;;;;;;;;;5349862;26;20332;-69
2024/04/22 05:11:23;;;;;;;62.65;5.85;;;;;;;;;;5349968;26;20300;-68
2024/04/22 05:13:49;;;;;;;58.95;5.90;;;;;;;;;;5348969;26;20245;-68
2024/04/22 05:16:18;;;;;;;62.00;6.10;;;;;;;;;;5349782;26;20297;-68
2024/04/22 05:18:44;;;;;;;59.42;5.88;;;;;;;;;;5349802;26;20257;-68
2024/04/22 05:21:15;;;;;;;58.30;5.30;;;;;;;;;;5349121;26;20293;-68
2024/04/22 05:23:46;;;;;;;58.85;5.50;;;;;;;;;;5349030;26;20249;-68
2024/04/22 05:26:15;;;;;;;59.22;6.13;;;;;;;;;;5349785;26;20280;-68
2024/04/22 05:28:43;;;;;;;59.53;6.38;;;;;;;;;;5349483;26;20362;-68
2024/04/22 05:31:12;;;;;;;59.00;6.07;;;;;;;;;;5349226;26;20382;-69
2024/04/22 05:36:29;;;;;;;60.13;6.13;;;;;;;;;;5351366;26;20350;-69
2024/04/22 05:38:58;;;;;;;58.90;5.93;;;;;;;;;;5349517;26;20478;-68
2024/04/22 05:41:27;;;;;;;58.92;5.90;;;;;;;;;;5349520;26;21533;-69
2024/04/22 05:43:55;;;;;;;59.95;6.20;;;;;;;;;;5348523;26;20347;-69
2024/04/22 05:46:24;;;;;;;60.15;6.35;;;;;;;;;;5348567;26;20791;-69
2024/04/22 05:48:50;;;;;;;60.50;6.25;;;;;;;;;;5347579;26;20342;-69
2024/04/22 05:51:19;;;;;;;58.33;5.20;;;;;;;;;;5348307;26;20280;-69
2024/04/22 05:53:50;;;;;;;59.40;5.90;;;;;;;;;;5348620;26;20245;-69
2024/04/22 05:56:17;;;;;;;59.22;5.50;;;;;;;;;;5348679;26;20249;-69
2024/04/22 05:58:45;;;;;;;59.25;5.50;;;;;;;;;;5348410;26;20309;-69
2024/04/22 06:01:11;;;;;;;58.33;5.88;;;;;;;;;;5348848;26;20268;-69
2024/04/22 06:03:40;;;;;;;58.92;5.80;;;;;;;;;;5348167;26;20241;-69
2024/04/22 06:06:06;;;;;;;59.65;6.70;;;;;;;;;;5347841;26;20802;-69
2024/04/22 06:08:35;;;;;;;58.60;5.30;;;;;;;;;;5348637;26;20241;-69
2024/04/22 06:11:04;;;;;;;58.80;5.93;;;;;;;;;;5348591;26;20237;-69
2024/04/22 06:13:33;;;;;;;58.60;5.90;;;;;;;;;;5347675;26;20241;-69
2024/04/22 06:15:59;;;;;;;60.03;6.78;;;;;;;;;;5347794;26;20342;-69
2024/04/22 06:18:28;;;;;;;60.08;5.07;;;;;;;;;;5347240;26;20249;-69
2024/04/22 06:20:54;;;;;;;58.47;5.15;;;;;;;;;;5347973;26;20242;-69
2024/04/22 06:23:23;;;;;;;58.65;5.53;;;;;;;;;;5347179;26;20276;-69
2024/04/22 06:25:49;;;;;;;60.10;5.57;;;;;;;;;;5348564;26;20253;-69
2024/04/22 06:28:20;;;;;;;59.90;5.50;;;;;;;;;;5350028;26;20789;-69
2024/04/22 06:30:47;;;;;;;59.60;6.17;;;;;;;;;;5350927;26;20364;-69
2024/04/22 06:33:15;;;;;;;59.10;5.35;;;;;;;;;;5350133;26;20471;-69
2024/04/22 06:35:42;;;;;;;58.95;5.22;;;;;;;;;;5348923;26;20327;-70
2024/04/22 06:38:10;;;;;;;58.60;5.30;;;;;;;;;;5344967;26;20797;-70
2024/04/22 06:40:36;;;;;;;57.23;3.73;;;;;;;;;;5349960;26;20535;-70
2024/04/22 06:43:05;;;;;;;57.50;4.83;;;;;;;;;;5347775;26;20614;-69
2024/04/22 06:45:34;;;;;;;59.20;4.87;;;;;;;;;;5349918;26;20479;-69
2024/04/22 06:48:03;;;;;;;58.37;4.50;;;;;;;;;;5349700;26;20475;-69
2024/04/22 06:50:29;;;;;;;58.57;4.90;;;;;;;;;;5349107;26;20483;-69
2024/04/22 06:52:58;;;;;;;66.50;5.70;;;;;;;;;;5347536;26;20475;-69
2024/04/22 06:55:24;;;;;;;58.07;5.20;;;;;;;;;;5347247;26;20487;-69
2024/04/22 06:57:52;;;;;;;58.07;4.73;;;;;;;;;;5346739;26;20535;-69
2024/04/22 07:00:19;;;;;;;58.43;4.20;;;;;;;;;;5346928;26;20487;-69
2024/04/22 07:02:51;;;;;;;58.03;4.20;;;;;;;;;;5347063;26;20514;-69
2024/04/22 07:05:17;;;;;;;58.80;4.60;;;;;;;;;;5347217;26;20543;-69
2024/04/22 07:07:46;;;;;;;57.33;4.13;;;;;;;;;;5346764;26;20479;-69
2024/04/22 07:10:13;;;;;;;56.47;3.63;;;;;;;;;;5347175;26;20464;-69
2024/04/22 07:12:43;;;;;;;57.37;3.90;;;;;;;;;;5347497;26;20487;-69
2024/04/22 07:15:10;;;;;;;59.97;3.87;;;;;;;;;;5347058;26;20586;-69
2024/04/22 07:17:39;;;;;;;57.00;4.03;;;;;;;;;;5346937;26;20491;-70
2024/04/22 07:20:08;;;;;;;58.07;4.27;;;;;;;;;;5346591;26;21002;-70
2024/04/22 07:22:37;;;;;;;62.20;4.40;;;;;;;;;;5332478;26;20873;-69
2024/04/22 07:25:04;;;;;;;58.17;4.30;;;;;;;;;;5346564;26;20468;-69
2024/04/22 07:27:33;;;;;;;57.60;3.80;;;;;;;;;;5346194;26;20484;-69
2024/04/22 07:29:59;;;;;;;58.10;4.20;;;;;;;;;;5346979;26;20623;-69
2024/04/22 07:32:29;;;;;;;57.87;4.17;;;;;;;;;;5346466;26;20814;-70
2024/04/22 07:34:55;;;;;;;58.97;4.60;;;;;;;;;;5346547;26;20543;-69
2024/04/22 07:37:32;;;;;;;57.57;4.33;;;;;;;;;;5345072;26;20468;-69
2024/04/22 07:40:04;;;;;;;58.00;4.60;;;;;;;;;;5346693;26;20876;-70
2024/04/22 07:42:33;;;;;;;57.20;3.80;;;;;;;;;;5346957;26;20544;-70
2024/04/22 07:44:59;;;;;;;56.80;3.80;;;;;;;;;;5346311;26;20602;-70
2024/04/22 07:47:28;;;;;;;58.67;4.17;;;;;;;;;;5345941;26;20483;-70
2024/04/22 07:49:54;;;;;;;57.33;3.50;;;;;;;;;;5346506;26;21121;-70
2024/04/22 07:52:24;;;;;;;56.67;3.37;;;;;;;;;;5346516;26;21042;-70
2024/04/22 07:54:53;;;;;;;56.57;3.70;;;;;;;;;;5346533;26;20483;-70
2024/04/22 07:57:22;;;;;;;57.43;3.70;;;;;;;;;;5346271;26;20562;-70
2024/04/22 07:59:48;;;;;;;56.90;3.70;;;;;;;;;;5346198;26;20472;-70
2024/04/22 08:02:17;;;;;;;57.07;3.63;;;;;;;;;;5346358;26;20479;-69
2024/04/22 08:04:44;;;;;;;56.33;3.40;;;;;;;;;;5346103;26;20590;-70
2024/04/22 08:07:15;;;;;;;56.90;3.70;;;;;;;;;;5345520;26;20559;-70
2024/04/22 08:09:41;;;;;;;57.20;3.33;;;;;;;;;;5346875;26;20525;-70
2024/04/22 08:12:13;;;;;;;59.00;3.50;;;;;;;;;;5346398;26;20476;-70
2024/04/22 08:14:39;;;;;;;59.57;4.67;;;;;;;;;;5346177;26;20471;-70
2024/04/22 08:17:08;;;;;;;62.17;4.00;;;;;;;;;;5345625;26;20495;-69
2024/04/22 08:19:34;;;;;;;58.77;4.43;;;;;;;;;;5346149;26;20535;-70
2024/04/22 08:22:03;;;;;;;56.67;4.00;;;;;;;;;;5346206;26;20568;-69
2024/04/22 08:24:29;;;;;;;56.80;3.60;;;;;;;;;;5345939;26;20487;-69
2024/04/22 08:26:59;;;;;;;56.17;3.30;;;;;;;;;;5345534;26;20541;-69
2024/04/22 08:29:28;;;;;;;56.60;3.33;;;;;;;;;;5346040;26;20962;-69
2024/04/22 08:31:57;;;;;;;58.53;3.40;;;;;;;;;;5346058;26;20476;-69
2024/04/22 08:34:23;;;;;;;57.80;4.20;;;;;;;;;;5346033;26;20543;-69
2024/04/22 08:36:52;;;;;;;57.20;3.57;;;;;;;;;;5345540;26;20979;-70
2024/04/22 08:39:18;;;;;;;57.63;4.27;;;;;;;;;;5345889;26;20483;-69
2024/04/22 08:41:46;;;;;;;57.30;3.40;;;;;;;;;;5345851;26;20480;-69
2024/04/22 08:44:13;;;;;;;55.87;3.33;;;;;;;;;;5345795;26;20491;-69
2024/04/22 08:46:44;;;;;;;56.87;3.40;;;;;;;;;;5345652;26;20483;-69
2024/04/22 08:49:10;;;;;;;56.30;3.10;;;;;;;;;;5344147;26;20543;-69
2024/04/22 08:51:39;;;;;;;59.07;3.93;;;;;;;;;;5345522;26;21034;-70
2024/04/22 08:54:06;;;;;;;57.00;3.73;;;;;;;;;;5345541;26;20475;-70
2024/04/22 08:56:35;;;;;;;58.63;3.57;;;;;;;;;;5345158;26;20484;-70
2024/04/22 08:59:01;;;;;;;56.97;3.70;;;;;;;;;;5345456;26;20817;-70
2024/04/22 09:01:31;;;;;;;56.10;2.93;;;;;;;;;;5345369;26;20557;-70
2024/04/22 09:04:00;;;;;;;57.77;3.90;;;;;;;;;;5346622;26;21044;-70
2024/04/22 09:06:29;;;;;;;56.70;3.30;;;;;;;;;;5345577;26;20529;-70
2024/04/22 09:08:55;;;;;;;57.70;4.00;;;;;;;;;;5345243;26;20690;-70
2024/04/22 09:11:24;;;;;;;56.70;3.70;;;;;;;;;;5346004;26;20471;-70
2024/04/22 09:13:58;;;;;;;56.50;3.60;;;;;;;;;;5345770;26;20479;-70
2024/04/22 09:16:27;;;;;;;59.00;4.20;;;;;;;;;;5344910;26;20877;-70
2024/04/22 09:18:54;;;;;;;57.10;3.93;;;;;;;;;;5345028;26;20479;-70
2024/04/22 09:21:27;;;;;;;57.00;3.33;;;;;;;;;;5344630;26;21097;-70
2024/04/22 09:23:54;;;;;;;61.20;4.20;;;;;;;;;;5345022;26;20467;-70
2024/04/22 09:26:23;;;;;;;56.87;3.43;;;;;;;;;;5344633;26;20483;-70
2024/04/22 09:28:50;;;;;;;55.67;3.20;;;;;;;;;;5345297;26;20476;-70
2024/04/22 09:31:21;;;;;;;58.00;3.90;;;;;;;;;;5344838;26;20901;-70
2024/04/22 09:33:48;;;;;;;57.37;3.97;;;;;;;;;;5345562;26;20512;-70
2024/04/22 09:36:17;;;;;;;57.67;3.77;;;;;;;;;;5345346;26;20476;-70
2024/04/22 09:38:48;;;;;;;58.90;3.53;;;;;;;;;;5344747;26;21008;-70
2024/04/22 09:41:17;;;;;;;56.80;3.10;;;;;;;;;;5344824;26;20472;-70
2024/04/22 09:43:44;;;;;;;57.27;3.83;;;;;;;;;;5344805;26;20484;-70
2024/04/22 09:46:14;;;;;;;57.50;3.57;;;;;;;;;;5344475;26;20531;-70
2024/04/22 09:48:40;;;;;;;57.50;3.37;;;;;;;;;;5344318;26;21037;-70
2024/04/22 09:51:11;;;;;;;55.90;3.20;;;;;;;;;;5344812;26;20472;-70
2024/04/22 09:53:38;;;;;;;56.13;3.20;;;;;;;;;;5345090;26;20602;-70
2024/04/22 09:56:11;;;;;;;57.50;3.50;;;;;;;;;;5344409;26;20606;-70
2024/04/22 09:58:38;;;;;;;56.77;3.47;;;;;;;;;;5344114;26;20639;-70
2024/04/22 10:01:07;;;;;;;58.37;3.20;;;;;;;;;;5347842;26;20589;-70
2024/04/22 10:03:33;;;;;;;56.57;3.40;;;;;;;;;;5348200;26;20463;-70
2024/04/22 10:06:03;;;;;;;57.17;3.40;;;;;;;;;;5348112;26;20879;-70
2024/04/22 10:08:29;;;;;;;57.43;3.93;;;;;;;;;;5347619;26;21023;-70
2024/04/22 10:11:09;;;;;;;57.07;3.20;;;;;;;;;;5347820;26;20543;-70
2024/04/22 10:13:35;;;;;;;56.57;3.03;;;;;;;;;;5348359;26;20583;-70
2024/04/22 10:16:04;;;;;;;56.27;2.90;;;;;;;;;;5347424;26;20541;-70
2024/04/22 10:18:31;;;;;;;56.57;3.07;;;;;;;;;;5348061;26;21163;-70
2024/04/22 10:21:03;;;;;;;56.57;3.00;;;;;;;;;;5347811;26;20487;-70
2024/04/22 10:23:29;;;;;;;56.20;3.10;;;;;;;;;;5347687;26;20471;-70
2024/04/22 10:25:58;;;;;;;56.40;2.77;;;;;;;;;;5347945;26;20491;-70
2024/04/22 10:28:26;;;;;;;57.20;3.30;;;;;;;;;;5347267;26;20914;-70
2024/04/22 10:30:59;;;;;;;56.37;2.90;;;;;;;;;;5347699;26;20472;-70
2024/04/22 10:33:26;;;;;;;56.20;2.70;;;;;;;;;;5347218;26;20479;-70
2024/04/22 10:35:54;;;;;;;57.43;3.10;;;;;;;;;;5347481;26;20487;-70
2024/04/22 10:38:22;;;;;;;56.57;3.30;;;;;;;;;;5346958;26;20570;-70
2024/04/22 10:40:51;;;;;;;56.70;3.30;;;;;;;;;;5347192;26;21063;-70
2024/04/22 10:43:17;;;;;;;58.20;3.87;;;;;;;;;;5347402;26;20522;-70
2024/04/22 10:45:49;;;;;;;58.10;3.80;;;;;;;;;;5346927;26;20476;-70
2024/04/22 10:48:16;;;;;;;56.33;3.10;;;;;;;;;;5347055;26;20491;-70
2024/04/22 10:50:45;;;;;;;55.23;2.57;;;;;;;;;;5347138;26;20597;-70
2024/04/22 10:53:11;;;;;;;56.50;3.20;;;;;;;;;;5347236;26;20732;-70
2024/04/22 10:55:40;;;;;;;56.40;3.37;;;;;;;;;;5347351;26;20476;-70
2024/04/22 10:58:06;;;;;;;57.80;3.50;;;;;;;;;;5346880;26;20547;-70
2024/04/22 11:00:35;;;;;;;56.73;3.33;;;;;;;;;;5346880;26;20483;-70
2024/04/22 11:03:04;;;;;;;57.30;3.60;;;;;;;;;;5347519;26;20557;-70
2024/04/22 11:05:33;;;;;;;57.07;3.30;;;;;;;;;;5347650;26;20944;-70
2024/04/22 11:07:59;;;;;;;57.57;3.27;;;;;;;;;;5346846;26;21086;-70
2024/04/22 11:10:28;;;;;;;59.60;3.17;;;;;;;;;;5346520;26;20540;-70
2024/04/22 11:12:55;;;;;;;57.10;3.70;;;;;;;;;;5347203;26;20620;-70
2024/04/22 11:15:24;;;;;;;56.37;3.00;;;;;;;;;;5346728;26;20542;-70
2024/04/22 11:17:50;;;;;;;56.70;3.43;;;;;;;;;;5346773;26;20844;-70
2024/04/22 11:20:23;;;;;;;56.37;2.97;;;;;;;;;;5347405;26;20890;-70
2024/04/22 11:22:49;;;;;;;57.50;3.30;;;;;;;;;;5347194;26;20670;-70
2024/04/22 11:25:18;;;;;;;57.03;3.77;;;;;;;;;;5346634;26;20593;-70
2024/04/22 11:27:44;;;;;;;56.87;3.10;;;;;;;;;;5346310;26;21110;-68
2024/04/22 11:30:13;;;;;;;57.10;3.60;;;;;;;;;;5346743;26;20484;-70
2024/04/22 11:32:39;;;;;;;56.97;3.30;;;;;;;;;;5346712;26;20595;-69
2024/04/22 11:35:09;;;;;;;59.60;3.53;;;;;;;;;;5346878;26;20565;-69
2024/04/22 11:37:37;;;;;;;57.10;4.00;;;;;;;;;;5346174;26;20539;-69
2024/04/22 11:40:07;;;;;;;57.17;3.30;;;;;;;;;;5346410;26;20533;-69
2024/04/22 11:42:33;;;;;;;56.10;2.70;;;;;;;;;;5346183;26;20478;-69
2024/04/22 11:45:02;;;;;;;57.07;3.50;;;;;;;;;;5346187;26;20485;-69
2024/04/22 11:47:28;;;;;;;56.43;2.87;;;;;;;;;;5345923;26;20593;-69
2024/04/22 11:49:57;;;;;;;56.47;3.10;;;;;;;;;;5346828;26;20483;-69
2024/04/22 11:52:23;;;;;;;57.93;3.23;;;;;;;;;;5346892;26;20611;-69
2024/04/22 11:54:54;;;;;;;57.27;3.43;;;;;;;;;;5346689;26;20564;-69
2024/04/22 11:57:21;;;;;;;57.07;3.10;;;;;;;;;;5345835;26;20539;-69
2024/04/22 11:59:50;;;;;;;58.27;3.00;;;;;;;;;;5346562;26;20523;-68
2024/04/22 12:02:16;;;;;;;56.50;2.77;;;;;;;;;;5346159;26;20475;-69
2024/04/22 12:04:46;;;;;;;56.13;3.03;;;;;;;;;;5346332;26;20528;-69
2024/04/22 12:07:12;;;;;;;57.10;3.40;;;;;;;;;;5345628;26;20495;-69
2024/04/22 12:09:41;;;;;;;57.13;3.03;;;;;;;;;;5346372;26;20586;-69
2024/04/22 12:12:10;;;;;;;56.20;2.73;;;;;;;;;;5346206;26;20596;-69
2024/04/22 12:14:38;;;;;;;56.00;3.00;;;;;;;;;;5345889;26;21009;-69
2024/04/22 12:17:04;;;;;;;56.73;3.00;;;;;;;;;;5345819;26;20586;-69
2024/04/22 12:19:33;;;;;;;55.97;2.40;;;;;;;;;;5346039;26;20483;-69
2024/04/22 12:21:59;;;;;;;56.07;2.73;;;;;;;;;;5345896;26;20537;-69
2024/04/22 12:24:28;;;;;;;56.13;2.83;;;;;;;;;;5346033;26;20478;-69
2024/04/22 12:26:54;;;;;;;57.30;3.43;;;;;;;;;;5345604;26;20481;-68
2024/04/22 12:29:26;;;;;;;56.37;2.93;;;;;;;;;;5346028;26;20473;-69
2024/04/22 12:31:52;;;;;;;57.47;4.03;;;;;;;;;;5346136;26;20521;-69
2024/04/22 12:34:21;;;;;;;57.57;3.70;;;;;;;;;;5345643;26;20544;-69
2024/04/22 12:36:47;;;;;;;56.37;3.47;;;;;;;;;;5345570;26;20598;-69
2024/04/22 12:39:16;;;;;;;60.97;4.20;;;;;;;;;;5345947;26;20532;-69
2024/04/22 12:41:42;;;;;;;56.97;3.40;;;;;;;;;;5345557;26;20594;-69
2024/04/22 12:44:11;;;;;;;57.07;3.30;;;;;;;;;;5346143;26;20904;-69
2024/04/22 12:50:42;;;;;;;57.10;3.47;;;;;;;;;;5345504;26;20479;-68
2024/04/22 12:52:17;;;;;;;57.03;3.27;;;;;;;;;;5347991;26;20607;-69
2024/04/22 12:54:46;;;;;;;56.70;3.33;;;;;;;;;;5345793;26;20596;-69
2024/04/22 12:57:14;;;;;;;56.43;3.27;;;;;;;;;;5345268;26;20474;-69
2024/04/22 12:59:43;;;;;;;56.13;2.77;;;;;;;;;;5345313;26;20610;-69
2024/04/22 13:02:15;;;;;;;56.57;3.10;;;;;;;;;;5345288;26;20616;-69
2024/04/22 13:04:44;;;;;;;56.47;2.93;;;;;;;;;;5345167;26;20599;-69
2024/04/22 13:07:13;;;;;;;57.10;3.70;;;;;;;;;;5345125;26;20605;-69
2024/04/22 13:09:41;;;;;;;56.70;3.27;;;;;;;;;;5345240;26;20584;-69
2024/04/22 13:12:10;;;;;;;56.70;3.00;;;;;;;;;;5345481;26;20582;-69
2024/04/22 13:14:36;;;;;;;56.50;3.10;;;;;;;;;;5345263;26;20531;-69
2024/04/22 13:17:05;;;;;;;56.30;2.90;;;;;;;;;;5344744;26;20717;-69
2024/04/22 13:19:36;;;;;;;56.90;3.10;;;;;;;;;;5345436;26;20476;-68
2024/04/22 13:22:05;;;;;;;56.50;3.20;;;;;;;;;;5345136;26;20867;-69
2024/04/22 13:24:31;;;;;;;59.27;3.97;;;;;;;;;;5345527;26;20488;-68
2024/04/22 13:27:00;;;;;;;57.40;3.53;;;;;;;;;;5345054;26;21023;-68
2024/04/22 13:29:26;;;;;;;56.80;3.30;;;;;;;;;;5345719;26;20479;-68
2024/04/22 13:31:55;;;;;;;56.60;3.20;;;;;;;;;;5345608;26;20475;-68
2024/04/22 13:34:21;;;;;;;58.20;3.60;;;;;;;;;;5345360;26;20487;-68
2024/04/22 13:36:55;;;;;;;63.10;4.00;;;;;;;;;;5345072;26;20563;-68
2024/04/22 13:39:21;;;;;;;57.67;3.03;;;;;;;;;;5345521;26;20475;-68
2024/04/22 13:41:50;;;;;;;56.93;3.50;;;;;;;;;;5345520;26;22435;-68
2024/04/22 13:44:16;;;;;;;57.17;3.70;;;;;;;;;;5345752;26;20987;-68
2024/04/22 13:46:45;;;;;;;56.60;3.00;;;;;;;;;;5345400;26;20614;-68
2024/04/22 13:49:13;;;;;;;57.90;3.10;;;;;;;;;;5346001;26;20695;-68
2024/04/22 13:51:42;;;;;;;57.97;3.30;;;;;;;;;;5345053;26;20471;-68
2024/04/22 13:54:11;;;;;;;58.53;3.43;;;;;;;;;;5345315;26;20487;-68
2024/04/22 13:56:40;;;;;;;56.33;2.97;;;;;;;;;;5344758;26;20527;-68
2024/04/22 13:59:06;;;;;;;56.30;2.70;;;;;;;;;;5345476;26;20483;-69
2024/04/22 14:01:34;;;;;;;56.53;3.60;;;;;;;;;;5344915;26;20475;-69
2024/04/22 14:04:01;;;;;;;56.30;3.00;;;;;;;;;;5345370;26;20490;-69
2024/04/22 14:06:29;;;;;;;57.10;3.07;;;;;;;;;;5344773;26;20480;-69
2024/04/22 14:08:55;;;;;;;56.87;3.43;;;;;;;;;;5330838;26;20543;-69
2024/04/22 14:11:27;;;;;;;57.00;3.17;;;;;;;;;;5344839;26;20535;-69
2024/04/22 14:13:53;;;;;;;57.10;3.20;;;;;;;;;;5344822;26;20495;-69
2024/04/22 14:16:22;;;;;;;56.60;3.40;;;;;;;;;;5344029;26;20540;-69
2024/04/22 14:18:48;;;;;;;56.20;3.07;;;;;;;;;;5343789;26;21079;-69
2024/04/22 14:21:17;;;;;;;57.40;3.03;;;;;;;;;;5343948;26;20527;-69
2024/04/22 14:23:43;;;;;;;59.30;3.50;;;;;;;;;;5343754;26;20484;-69
2024/04/22 14:26:11;;;;;;;56.97;3.50;;;;;;;;;;5343865;26;20472;-70
2024/04/22 14:28:40;;;;;;;60.17;3.13;;;;;;;;;;5343749;26;20559;-69
2024/04/22 14:31:09;;;;;;;56.60;2.80;;;;;;;;;;5343908;26;20476;-69
2024/04/22 14:33:35;;;;;;;56.47;3.07;;;;;;;;;;5343641;26;20983;-69
2024/04/22 14:36:04;;;;;;;56.10;2.73;;;;;;;;;;5343611;26;20471;-70
2024/04/22 14:38:30;;;;;;;56.70;2.70;;;;;;;;;;5343837;26;20483;-70
2024/04/22 14:40:59;;;;;;;57.17;3.00;;;;;;;;;;5343932;26;20590;-70
2024/04/22 14:43:25;;;;;;;55.80;2.50;;;;;;;;;;5343808;26;20484;-70